Time;durP1;ratioP1;P1;durP2;ratioP2;P2;SDS_P1;SDS_P2;PMS_P1;PMS_P2;Temp;Humidity;BMP_temperature;BMP_pressure;BME280_temperature;BME280_humidity;BME280_pressure;Samples;Min_cycle;Max_cycle;Signal;HPM_P1;HPM_P2
2022/04/16 00:01:33;;;;;;;28.65;20.75;;;;;;;;;;5095992;28;20230;-69
2022/04/16 00:04:00;;;;;;;29.50;23.05;;;;;;;;;;5096416;28;20201;-69
2022/04/16 00:06:27;;;;;;;29.30;22.05;;;;;;;;;;5095914;28;20209;-69
2022/04/16 00:08:55;;;;;;;28.23;22.55;;;;;;;;;;5096045;28;20191;-69
2022/04/16 00:11:22;;;;;;;28.92;21.40;;;;;;;;;;5096078;28;20206;-69
2022/04/16 00:13:50;;;;;;;33.97;23.65;;;;;;;;;;5096207;28;20196;-69
2022/04/16 00:16:18;;;;;;;27.80;21.33;;;;;;;;;;5095756;28;20199;-69
2022/04/16 00:18:45;;;;;;;31.38;23.73;;;;;;;;;;5095849;28;20266;-70
2022/04/16 00:21:12;;;;;;;31.02;21.98;;;;;;;;;;5095660;28;20618;-70
2022/04/16 00:23:41;;;;;;;29.92;22.35;;;;;;;;;;5095467;28;20650;-70
2022/04/16 00:26:12;;;;;;;30.33;21.00;;;;;;;;;;5095963;28;20192;-70
2022/04/16 00:28:39;;;;;;;29.13;22.40;;;;;;;;;;5095353;28;20211;-69
2022/04/16 00:31:07;;;;;;;32.83;24.20;;;;;;;;;;5095506;28;20196;-69
2022/04/16 00:33:35;;;;;;;31.00;22.52;;;;;;;;;;5094831;28;20200;-70
2022/04/16 00:36:02;;;;;;;31.33;21.70;;;;;;;;;;5095039;28;20200;-69
2022/04/16 00:38:30;;;;;;;33.72;21.88;;;;;;;;;;5095142;28;20195;-69
2022/04/16 00:40:57;;;;;;;30.33;22.73;;;;;;;;;;5095605;28;20199;-69
2022/04/16 00:43:25;;;;;;;31.70;22.73;;;;;;;;;;5095306;28;20222;-70
2022/04/16 00:45:53;;;;;;;28.90;21.17;;;;;;;;;;5095018;28;20219;-70
2022/04/16 00:48:22;;;;;;;29.00;21.60;;;;;;;;;;5095385;28;20188;-70
2022/04/16 00:50:50;;;;;;;27.60;23.00;;;;;;;;;;5095247;28;20560;-69
2022/04/16 00:53:17;;;;;;;32.00;22.55;;;;;;;;;;5094840;28;20199;-69
2022/04/16 00:55:44;;;;;;;30.20;22.85;;;;;;;;;;5095494;28;20249;-69
2022/04/16 00:58:11;;;;;;;35.10;24.10;;;;;;;;;;5094948;28;20253;-70
2022/04/16 01:00:39;;;;;;;36.00;23.30;;;;;;;;;;5094609;28;20198;-69
2022/04/16 01:03:07;;;;;;;28.55;21.60;;;;;;;;;;5094639;28;20229;-69
2022/04/16 01:05:36;;;;;;;40.35;24.42;;;;;;;;;;5095139;28;20197;-68
2022/04/16 01:08:04;;;;;;;30.63;22.80;;;;;;;;;;5094918;28;20195;-70
2022/04/16 01:10:32;;;;;;;35.63;24.92;;;;;;;;;;5094407;28;20199;-70
2022/04/16 01:13:00;;;;;;;30.00;22.10;;;;;;;;;;5095102;28;20204;-69
2022/04/16 01:15:29;;;;;;;37.47;24.52;;;;;;;;;;5094393;28;20655;-70
2022/04/16 01:17:56;;;;;;;33.55;23.10;;;;;;;;;;5094904;28;20191;-69
2022/04/16 01:20:24;;;;;;;31.35;23.48;;;;;;;;;;5094361;28;20196;-70
2022/04/16 01:22:56;;;;;;;34.42;23.98;;;;;;;;;;5094409;28;20219;-70
2022/04/16 01:25:25;;;;;;;28.45;22.27;;;;;;;;;;5095444;28;20555;-70
2022/04/16 01:27:52;;;;;;;33.17;22.98;;;;;;;;;;5094536;28;20196;-70
2022/04/16 01:30:20;;;;;;;28.05;21.42;;;;;;;;;;5095022;28;20195;-70
2022/04/16 01:32:48;;;;;;;33.90;25.13;;;;;;;;;;5094424;28;20205;-70
2022/04/16 01:35:16;;;;;;;30.23;23.77;;;;;;;;;;5094059;28;20289;-69
2022/04/16 01:37:43;;;;;;;35.55;22.80;;;;;;;;;;5094352;28;20287;-69
2022/04/16 01:40:13;;;;;;;28.75;23.35;;;;;;;;;;5094013;28;20206;-69
2022/04/16 01:42:40;;;;;;;34.58;23.67;;;;;;;;;;5094089;28;20300;-70
2022/04/16 01:45:08;;;;;;;33.13;23.42;;;;;;;;;;5094177;28;20197;-69
2022/04/16 01:47:36;;;;;;;36.03;23.73;;;;;;;;;;5093877;28;20639;-69
2022/04/16 01:50:03;;;;;;;34.38;24.67;;;;;;;;;;5094558;28;20196;-69
2022/04/16 01:52:30;;;;;;;32.90;24.83;;;;;;;;;;5094024;28;20205;-70
2022/04/16 01:54:58;;;;;;;39.30;25.52;;;;;;;;;;5094130;28;20199;-70
2022/04/16 01:57:26;;;;;;;36.90;24.95;;;;;;;;;;5094134;28;20198;-69
2022/04/16 01:59:53;;;;;;;43.65;26.38;;;;;;;;;;5093679;28;20200;-70
2022/04/16 02:02:21;;;;;;;38.63;27.40;;;;;;;;;;5093990;28;20242;-69
2022/04/16 02:04:48;;;;;;;35.42;24.50;;;;;;;;;;5093920;28;20199;-69
2022/04/16 02:07:15;;;;;;;35.20;24.40;;;;;;;;;;5093537;28;20198;-69
2022/04/16 02:09:43;;;;;;;41.42;26.55;;;;;;;;;;5093574;28;20196;-69
2022/04/16 02:12:10;;;;;;;38.17;25.63;;;;;;;;;;5093459;28;20202;-69
2022/04/16 02:14:39;;;;;;;40.17;27.35;;;;;;;;;;5094676;28;20199;-69
2022/04/16 02:17:06;;;;;;;41.85;27.40;;;;;;;;;;5093416;28;20215;-69
2022/04/16 02:19:36;;;;;;;36.25;26.33;;;;;;;;;;5093795;28;20252;-69
2022/04/16 02:22:04;;;;;;;33.28;24.45;;;;;;;;;;5093485;28;20215;-69
2022/04/16 02:24:31;;;;;;;37.13;25.95;;;;;;;;;;5094081;28;20638;-69
2022/04/16 02:26:58;;;;;;;40.90;26.67;;;;;;;;;;5093515;28;20666;-70
2022/04/16 02:29:25;;;;;;;35.45;26.02;;;;;;;;;;5093826;28;20222;-70
2022/04/16 02:31:54;;;;;;;39.83;27.38;;;;;;;;;;5093420;28;20199;-70
2022/04/16 02:34:22;;;;;;;43.47;28.00;;;;;;;;;;5093859;28;20206;-69
2022/04/16 02:36:49;;;;;;;37.95;27.83;;;;;;;;;;5093784;28;20198;-70
2022/04/16 02:39:16;;;;;;;40.65;26.10;;;;;;;;;;5093720;28;20200;-69
2022/04/16 02:41:43;;;;;;;39.00;25.90;;;;;;;;;;5093789;28;20222;-71
2022/04/16 02:47:05;;;;;;;36.17;25.73;;;;;;;;;;5093826;28;20235;-69
2022/04/16 02:47:05;;;;;;;39.25;25.90;;;;;;;;;;5093348;28;20330;-70
2022/04/16 02:49:32;;;;;;;38.35;24.92;;;;;;;;;;5093280;28;20199;-70
2022/04/16 02:51:59;;;;;;;35.00;24.27;;;;;;;;;;5093341;28;20250;-70
2022/04/16 02:54:26;;;;;;;36.67;25.77;;;;;;;;;;5093718;28;20203;-72
2022/04/16 02:56:55;;;;;;;36.33;23.80;;;;;;;;;;5093922;28;20193;-71
2022/04/16 02:59:23;;;;;;;34.15;25.65;;;;;;;;;;5097494;28;20272;-70
2022/04/16 03:01:50;;;;;;;38.53;26.35;;;;;;;;;;5097352;28;20550;-69
2022/04/16 03:04:18;;;;;;;34.08;23.60;;;;;;;;;;5096867;28;20653;-69
2022/04/16 03:06:46;;;;;;;36.65;26.00;;;;;;;;;;5097672;28;20221;-69
2022/04/16 03:09:13;;;;;;;32.85;24.00;;;;;;;;;;5096802;28;20198;-70
2022/04/16 03:11:40;;;;;;;31.02;24.42;;;;;;;;;;5097160;28;20191;-69
2022/04/16 03:19:39;;;;;;;39.97;25.00;;;;;;;;;;5096784;28;20208;-70
2022/04/16 03:22:06;;;;;;;42.13;26.85;;;;;;;;;;5097402;28;20222;-70
2022/04/16 03:24:33;;;;;;;33.70;25.08;;;;;;;;;;5096514;28;20240;-70
2022/04/16 03:27:00;;;;;;;39.10;25.60;;;;;;;;;;5096876;28;20199;-70
2022/04/16 03:29:28;;;;;;;38.65;26.20;;;;;;;;;;5096434;28;20194;-69
2022/04/16 03:31:55;;;;;;;35.80;24.95;;;;;;;;;;5096867;28;20244;-70
2022/04/16 03:34:23;;;;;;;39.55;25.73;;;;;;;;;;5096316;28;20230;-70
2022/04/16 03:36:51;;;;;;;38.63;26.55;;;;;;;;;;5096609;28;20192;-70
2022/04/16 03:39:20;;;;;;;34.97;25.23;;;;;;;;;;5096614;28;20235;-70
2022/04/16 03:41:48;;;;;;;42.85;25.05;;;;;;;;;;5096983;28;20279;-70
2022/04/16 03:44:15;;;;;;;41.15;24.20;;;;;;;;;;5096118;28;20589;-70
2022/04/16 03:46:42;;;;;;;34.30;26.45;;;;;;;;;;5096773;28;20319;-70
2022/04/16 03:49:10;;;;;;;36.53;26.20;;;;;;;;;;5096362;28;20208;-69
2022/04/16 03:51:37;;;;;;;37.78;26.38;;;;;;;;;;5096377;28;20200;-69
2022/04/16 04:02:16;;;;;;;42.72;27.75;;;;;;;;;;5096062;28;20185;-76
2022/04/16 04:04:43;;;;;;;41.00;28.05;;;;;;;;;;5095734;28;20286;-71
2022/04/16 04:07:11;;;;;;;41.05;26.75;;;;;;;;;;5095743;28;20252;-71
2022/04/16 04:09:39;;;;;;;37.97;25.20;;;;;;;;;;5094449;28;20245;-69
2022/04/16 04:12:07;;;;;;;36.25;24.85;;;;;;;;;;5095955;28;20238;-70
2022/04/16 04:14:37;;;;;;;43.83;27.55;;;;;;;;;;5095877;28;20202;-73
2022/04/16 04:17:06;;;;;;;41.80;26.30;;;;;;;;;;5096360;28;20183;-70
2022/04/16 04:19:33;;;;;;;41.45;26.00;;;;;;;;;;5095470;28;20242;-74
2022/04/16 04:22:00;;;;;;;39.38;26.45;;;;;;;;;;5096087;28;20201;-75
2022/04/16 04:24:27;;;;;;;39.05;25.10;;;;;;;;;;5095280;28;20220;-75
2022/04/16 04:26:57;;;;;;;40.33;26.58;;;;;;;;;;5095553;28;20248;-74
2022/04/16 04:29:24;;;;;;;39.33;26.67;;;;;;;;;;5095273;28;20198;-74
2022/04/16 04:31:51;;;;;;;35.47;26.02;;;;;;;;;;5095597;28;20292;-75
2022/04/16 04:34:19;;;;;;;40.47;27.13;;;;;;;;;;5094698;28;20290;-74
2022/04/16 04:36:46;;;;;;;41.47;29.20;;;;;;;;;;5095235;28;20192;-74
2022/04/16 04:39:13;;;;;;;39.60;26.00;;;;;;;;;;5095364;28;20199;-74
2022/04/16 04:41:42;;;;;;;34.33;25.25;;;;;;;;;;5095125;28;20205;-74
2022/04/16 04:44:11;;;;;;;40.30;25.88;;;;;;;;;;5095158;28;20220;-74
2022/04/16 04:46:38;;;;;;;38.35;27.42;;;;;;;;;;5095324;28;20228;-74
2022/04/16 04:49:08;;;;;;;43.08;26.35;;;;;;;;;;5095181;28;20549;-74
2022/04/16 04:51:35;;;;;;;41.85;24.98;;;;;;;;;;5095474;28;20197;-74
2022/04/16 04:54:02;;;;;;;39.47;26.00;;;;;;;;;;5095088;28;20200;-74
2022/04/16 04:56:30;;;;;;;40.05;26.50;;;;;;;;;;5095155;28;20549;-74
2022/04/16 04:58:57;;;;;;;38.05;25.02;;;;;;;;;;5094584;28;20282;-75
2022/04/16 05:01:25;;;;;;;39.50;26.73;;;;;;;;;;5094651;28;20202;-74
2022/04/16 05:03:53;;;;;;;40.53;24.67;;;;;;;;;;5095108;28;20719;-75
2022/04/16 05:06:20;;;;;;;43.53;27.08;;;;;;;;;;5094955;28;20228;-75
2022/04/16 05:08:47;;;;;;;42.50;26.45;;;;;;;;;;5094705;28;20202;-75
2022/04/16 05:11:15;;;;;;;36.85;24.40;;;;;;;;;;5095335;28;20553;-74
2022/04/16 05:13:42;;;;;;;39.83;23.63;;;;;;;;;;5094734;28;20293;-74
2022/04/16 05:16:10;;;;;;;41.85;26.60;;;;;;;;;;5094688;28;20196;-74
2022/04/16 05:18:39;;;;;;;36.30;22.90;;;;;;;;;;5094388;28;20198;-73
2022/04/16 05:21:06;;;;;;;43.72;25.80;;;;;;;;;;5093918;28;20387;-74
2022/04/16 05:23:33;;;;;;;38.33;26.48;;;;;;;;;;5094250;28;20217;-74
2022/04/16 05:26:00;;;;;;;39.95;24.67;;;;;;;;;;5094199;28;20290;-74
2022/04/16 05:28:28;;;;;;;36.90;23.52;;;;;;;;;;5094703;28;20720;-74
2022/04/16 05:30:58;;;;;;;35.83;26.35;;;;;;;;;;5094072;28;20204;-75
2022/04/16 05:36:11;;;;;;;35.17;24.00;;;;;;;;;;5094142;28;20224;-75
2022/04/16 05:38:39;;;;;;;37.17;24.05;;;;;;;;;;5094373;28;20195;-74
2022/04/16 05:41:06;;;;;;;39.15;23.38;;;;;;;;;;5094226;28;20201;-75
2022/04/16 05:43:33;;;;;;;41.65;23.88;;;;;;;;;;5094234;28;20314;-74
2022/04/16 05:46:00;;;;;;;38.88;22.88;;;;;;;;;;5093719;28;20654;-74
2022/04/16 05:48:27;;;;;;;36.67;22.20;;;;;;;;;;5094201;28;20193;-74
2022/04/16 05:50:55;;;;;;;38.85;24.20;;;;;;;;;;5093811;28;20207;-69
2022/04/16 05:53:23;;;;;;;36.42;21.63;;;;;;;;;;5093750;28;20195;-71
2022/04/16 05:55:51;;;;;;;35.85;21.15;;;;;;;;;;5093883;28;20200;-71
2022/04/16 05:58:19;;;;;;;32.95;21.58;;;;;;;;;;5094341;28;20226;-71
2022/04/16 06:00:46;;;;;;;36.38;21.77;;;;;;;;;;5094031;28;20191;-71
2022/04/16 06:03:13;;;;;;;34.25;21.70;;;;;;;;;;5093935;28;20220;-68
2022/04/16 06:05:41;;;;;;;31.88;21.10;;;;;;;;;;5093728;28;20280;-75
2022/04/16 06:08:08;;;;;;;33.65;21.20;;;;;;;;;;5093891;28;20709;-77
2022/04/16 06:10:37;;;;;;;32.78;21.02;;;;;;;;;;5093796;28;20201;-77
2022/04/16 06:13:05;;;;;;;36.78;21.67;;;;;;;;;;5093965;28;20559;-77
2022/04/16 06:15:33;;;;;;;34.78;19.38;;;;;;;;;;5093954;28;20198;-77
2022/04/16 06:18:00;;;;;;;34.55;20.20;;;;;;;;;;5093803;28;20242;-77
2022/04/16 06:20:27;;;;;;;32.55;19.90;;;;;;;;;;5093647;28;20207;-77
2022/04/16 06:22:54;;;;;;;33.65;20.05;;;;;;;;;;5093614;28;20292;-77
2022/04/16 06:25:22;;;;;;;26.17;18.23;;;;;;;;;;5093637;28;20200;-78
2022/04/16 06:27:51;;;;;;;29.83;19.20;;;;;;;;;;5094092;28;20289;-77
2022/04/16 06:30:18;;;;;;;32.40;18.85;;;;;;;;;;5093597;28;20200;-77
2022/04/16 06:32:46;;;;;;;30.42;18.90;;;;;;;;;;5095604;28;20648;-77
2022/04/16 06:35:13;;;;;;;25.45;16.90;;;;;;;;;;5097235;28;20225;-77
2022/04/16 06:37:41;;;;;;;36.30;18.65;;;;;;;;;;5097727;28;20209;-77
2022/04/16 06:40:09;;;;;;;23.55;15.95;;;;;;;;;;5097645;28;20205;-78
2022/04/16 06:42:37;;;;;;;24.65;17.25;;;;;;;;;;5097531;28;20191;-78
2022/04/16 06:45:07;;;;;;;26.92;15.95;;;;;;;;;;5097727;28;20699;-77
2022/04/16 06:47:34;;;;;;;24.55;16.13;;;;;;;;;;5097694;28;20314;-77
2022/04/16 06:50:02;;;;;;;28.40;15.75;;;;;;;;;;5097745;28;20199;-77
2022/04/16 06:52:29;;;;;;;27.45;15.95;;;;;;;;;;5097475;28;20287;-77
2022/04/16 06:54:57;;;;;;;19.50;14.98;;;;;;;;;;5097399;28;20284;-77
2022/04/16 06:57:25;;;;;;;19.98;13.50;;;;;;;;;;5097116;28;20196;-77
2022/04/16 06:59:52;;;;;;;19.35;14.57;;;;;;;;;;5097455;28;20199;-77
2022/04/16 07:02:20;;;;;;;18.80;13.80;;;;;;;;;;5097222;28;20211;-77
2022/04/16 07:04:48;;;;;;;19.00;11.52;;;;;;;;;;5097080;28;20228;-77
2022/04/16 07:07:15;;;;;;;18.35;11.48;;;;;;;;;;5097419;28;20205;-77
2022/04/16 07:09:42;;;;;;;16.30;11.23;;;;;;;;;;5097261;28;20191;-77
2022/04/16 07:12:10;;;;;;;14.23;11.15;;;;;;;;;;5096992;28;20200;-77
2022/04/16 07:14:38;;;;;;;13.77;9.80;;;;;;;;;;5096712;28;20258;-77
2022/04/16 07:17:07;;;;;;;12.05;9.40;;;;;;;;;;5096663;28;20226;-78
2022/04/16 07:19:36;;;;;;;11.70;9.77;;;;;;;;;;5097049;28;20209;-77
2022/04/16 07:22:03;;;;;;;15.27;10.90;;;;;;;;;;5097002;28;20193;-77
2022/04/16 07:24:31;;;;;;;14.00;10.68;;;;;;;;;;5096712;28;20220;-77
2022/04/16 07:26:58;;;;;;;12.02;9.50;;;;;;;;;;5096443;28;20296;-77
2022/04/16 07:29:26;;;;;;;12.85;10.75;;;;;;;;;;5097327;28;20285;-77
2022/04/16 07:31:53;;;;;;;11.90;9.63;;;;;;;;;;5096371;28;20659;-77
2022/04/16 07:34:20;;;;;;;16.02;11.32;;;;;;;;;;5096669;28;20203;-77
2022/04/16 07:36:49;;;;;;;10.55;9.38;;;;;;;;;;5096592;28;20195;-77
2022/04/16 07:39:16;;;;;;;13.00;9.73;;;;;;;;;;5096310;28;20199;-76
2022/04/16 07:41:43;;;;;;;13.30;9.63;;;;;;;;;;5096502;28;20202;-76
2022/04/16 07:44:11;;;;;;;12.90;9.48;;;;;;;;;;5096259;28;20312;-76
2022/04/16 07:46:38;;;;;;;16.77;9.95;;;;;;;;;;5096060;28;20315;-76
2022/04/16 07:49:06;;;;;;;15.35;9.35;;;;;;;;;;5096399;28;20201;-77
2022/04/16 07:51:33;;;;;;;9.75;8.57;;;;;;;;;;5096295;28;20284;-76
2022/04/16 07:54:01;;;;;;;10.98;8.00;;;;;;;;;;5096304;28;20203;-76
2022/04/16 07:56:28;;;;;;;12.95;7.93;;;;;;;;;;5096099;28;20682;-77
2022/04/16 07:58:56;;;;;;;9.05;7.53;;;;;;;;;;5096687;28;20531;-76
2022/04/16 08:01:23;;;;;;;10.20;7.95;;;;;;;;;;5095926;28;20200;-76
2022/04/16 08:03:51;;;;;;;8.52;7.20;;;;;;;;;;5096022;28;20220;-76
2022/04/16 08:06:18;;;;;;;10.20;8.57;;;;;;;;;;5095999;28;20562;-76
2022/04/16 08:08:45;;;;;;;11.05;7.10;;;;;;;;;;5095739;28;20195;-76
2022/04/16 08:11:14;;;;;;;9.73;7.03;;;;;;;;;;5096023;28;20279;-76
2022/04/16 08:13:41;;;;;;;8.82;6.18;;;;;;;;;;5095448;28;20203;-77
2022/04/16 08:16:08;;;;;;;8.68;6.18;;;;;;;;;;5096095;28;20201;-77
2022/04/16 08:18:36;;;;;;;10.65;6.72;;;;;;;;;;5095790;28;20193;-77
2022/04/16 08:21:08;;;;;;;8.80;5.57;;;;;;;;;;5096086;28;20722;-77
2022/04/16 08:23:43;;;;;;;7.07;5.40;;;;;;;;;;5095490;28;20184;-78
2022/04/16 08:26:11;;;;;;;6.05;5.32;;;;;;;;;;5095350;28;20672;-78
2022/04/16 08:28:40;;;;;;;10.32;5.07;;;;;;;;;;5095846;28;20308;-78
2022/04/16 08:31:07;;;;;;;9.18;4.93;;;;;;;;;;5096345;28;20204;-78
2022/04/16 08:33:34;;;;;;;6.30;5.30;;;;;;;;;;5095165;28;20671;-78
2022/04/16 08:36:01;;;;;;;8.18;4.93;;;;;;;;;;5095151;28;20675;-78
2022/04/16 08:38:28;;;;;;;6.07;5.30;;;;;;;;;;5095365;28;20193;-78
2022/04/16 08:40:56;;;;;;;5.95;5.35;;;;;;;;;;5095435;28;20194;-78
2022/04/16 08:43:23;;;;;;;7.60;5.20;;;;;;;;;;5095459;28;20231;-78
2022/04/16 08:45:54;;;;;;;6.25;5.00;;;;;;;;;;5095041;28;20215;-78
2022/04/16 08:48:22;;;;;;;5.55;4.88;;;;;;;;;;5095118;28;20551;-78
2022/04/16 08:50:49;;;;;;;5.15;4.65;;;;;;;;;;5095215;28;20192;-77
2022/04/16 08:53:17;;;;;;;6.03;4.30;;;;;;;;;;5095125;28;20192;-78
2022/04/16 08:55:44;;;;;;;5.88;3.60;;;;;;;;;;5094527;28;20227;-78
2022/04/16 08:58:11;;;;;;;4.82;4.43;;;;;;;;;;5094813;28;20218;-78
2022/04/16 09:00:38;;;;;;;4.93;4.47;;;;;;;;;;5095051;28;20284;-79
2022/04/16 09:03:09;;;;;;;4.70;4.30;;;;;;;;;;5095149;28;20197;-78
2022/04/16 09:05:36;;;;;;;5.50;4.90;;;;;;;;;;5094619;28;20681;-78
2022/04/16 09:08:04;;;;;;;6.55;4.47;;;;;;;;;;5093799;28;20196;-78
2022/04/16 09:10:33;;;;;;;5.30;4.15;;;;;;;;;;5094817;28;20192;-78
2022/04/16 09:13:00;;;;;;;4.55;4.15;;;;;;;;;;5094750;28;20199;-78
2022/04/16 09:15:28;;;;;;;4.40;4.00;;;;;;;;;;5094465;28;20204;-78
2022/04/16 09:17:59;;;;;;;4.45;4.05;;;;;;;;;;5094309;28;20666;-78
2022/04/16 09:20:32;;;;;;;6.00;4.28;;;;;;;;;;5094810;28;20206;-78
2022/04/16 09:23:00;;;;;;;4.93;4.20;;;;;;;;;;5094032;28;20215;-78
2022/04/16 09:25:30;;;;;;;5.57;4.97;;;;;;;;;;5094367;28;20692;-78
2022/04/16 09:27:58;;;;;;;4.70;4.30;;;;;;;;;;5094419;28;20283;-77
2022/04/16 09:30:27;;;;;;;4.60;4.15;;;;;;;;;;5094597;28;20196;-78
2022/04/16 09:32:56;;;;;;;4.60;4.20;;;;;;;;;;5094555;28;20255;-78
2022/04/16 09:35:33;;;;;;;5.88;4.70;;;;;;;;;;5094048;28;20201;-78
2022/04/16 09:38:00;;;;;;;5.60;4.63;;;;;;;;;;5094309;28;20209;-78
2022/04/16 09:40:28;;;;;;;4.80;4.38;;;;;;;;;;5094341;28;20207;-78
2022/04/16 09:42:56;;;;;;;6.30;4.40;;;;;;;;;;5094587;28;20195;-78
2022/04/16 09:45:23;;;;;;;5.75;4.20;;;;;;;;;;5094067;28;20220;-78
2022/04/16 09:47:52;;;;;;;4.70;4.20;;;;;;;;;;5094501;28;20332;-78
2022/04/16 09:50:20;;;;;;;4.85;4.45;;;;;;;;;;5094045;28;20233;-78
2022/04/16 09:52:51;;;;;;;5.57;4.95;;;;;;;;;;5094302;28;20646;-78
2022/04/16 09:55:19;;;;;;;5.40;4.07;;;;;;;;;;5094583;28;20188;-78
2022/04/16 09:57:47;;;;;;;4.83;3.87;;;;;;;;;;5094011;28;20454;-78
2022/04/16 10:00:16;;;;;;;5.90;4.00;;;;;;;;;;5094017;28;20467;-78
2022/04/16 10:02:44;;;;;;;3.85;3.55;;;;;;;;;;5093624;28;20442;-79
2022/04/16 10:05:12;;;;;;;4.20;3.90;;;;;;;;;;5093579;28;20228;-78
2022/04/16 10:07:39;;;;;;;4.47;4.10;;;;;;;;;;5093193;28;20450;-78
2022/04/16 10:10:17;;;;;;;4.10;3.80;;;;;;;;;;5093864;28;20197;-78
2022/04/16 10:13:00;;;;;;;3.43;3.13;;;;;;;;;;5094084;28;20511;-78
2022/04/16 10:15:31;;;;;;;7.20;3.83;;;;;;;;;;5093952;28;20439;-78
2022/04/16 10:17:58;;;;;;;4.28;3.42;;;;;;;;;;5093756;28;20187;-79
2022/04/16 10:20:26;;;;;;;3.90;3.53;;;;;;;;;;5093759;28;20200;-79
2022/04/16 10:22:54;;;;;;;3.30;3.10;;;;;;;;;;5093532;28;20190;-78
2022/04/16 10:25:31;;;;;;;3.10;2.90;;;;;;;;;;5093713;28;20840;-78
2022/04/16 10:28:02;;;;;;;5.20;3.57;;;;;;;;;;5094376;28;20961;-78
2022/04/16 10:30:37;;;;;;;5.18;3.30;;;;;;;;;;5094120;28;20909;-78
2022/04/16 10:33:05;;;;;;;3.97;3.17;;;;;;;;;;5094713;28;20187;-78
2022/04/16 10:35:32;;;;;;;3.78;3.47;;;;;;;;;;5093773;28;20204;-78
2022/04/16 10:37:59;;;;;;;3.10;2.90;;;;;;;;;;5093974;28;20207;-78
2022/04/16 10:40:28;;;;;;;3.13;2.90;;;;;;;;;;5093694;28;20446;-78
2022/04/16 10:43:01;;;;;;;3.33;3.10;;;;;;;;;;5094028;28;20193;-78
2022/04/16 10:45:28;;;;;;;3.40;3.20;;;;;;;;;;5093965;28;20205;-78
2022/04/16 10:47:55;;;;;;;3.87;2.80;;;;;;;;;;5094336;28;20501;-78
2022/04/16 10:50:23;;;;;;;3.17;2.80;;;;;;;;;;5092953;28;20454;-78
2022/04/16 10:52:54;;;;;;;3.00;2.80;;;;;;;;;;5093721;28;20431;-78
2022/04/16 10:55:27;;;;;;;3.90;2.78;;;;;;;;;;5093473;28;20201;-78
2022/04/16 10:58:03;;;;;;;2.67;2.47;;;;;;;;;;5093413;28;20200;-78
2022/04/16 11:00:37;;;;;;;2.93;2.73;;;;;;;;;;5093930;28;20443;-78
2022/04/16 11:03:08;;;;;;;2.60;2.50;;;;;;;;;;5093937;28;20438;-78
2022/04/16 11:05:36;;;;;;;2.80;2.60;;;;;;;;;;5093618;28;20486;-78
2022/04/16 11:08:04;;;;;;;3.23;3.03;;;;;;;;;;5093270;28;20509;-78
2022/04/16 11:10:31;;;;;;;3.10;2.80;;;;;;;;;;5093512;28;20462;-78
2022/04/16 11:12:58;;;;;;;3.30;3.00;;;;;;;;;;5093252;28;20431;-77
2022/04/16 11:15:27;;;;;;;2.40;2.30;;;;;;;;;;5092874;28;20448;-78
2022/04/16 11:17:55;;;;;;;2.50;2.30;;;;;;;;;;5093876;28;20431;-78
2022/04/16 11:20:22;;;;;;;2.57;2.37;;;;;;;;;;5096995;28;20442;-78
2022/04/16 11:22:49;;;;;;;2.13;2.03;;;;;;;;;;5097512;28;20440;-78
2022/04/16 11:25:17;;;;;;;2.30;2.10;;;;;;;;;;5096672;28;20475;-77
2022/04/16 11:36:19;;;;;;;3.03;2.33;;;;;;;;;;5071065;28;20519;-78
2022/04/16 11:38:46;;;;;;;2.57;2.03;;;;;;;;;;5096864;28;20455;-78
2022/04/16 11:41:14;;;;;;;2.77;2.57;;;;;;;;;;5096928;28;20442;-78
2022/04/16 11:43:47;;;;;;;3.00;2.43;;;;;;;;;;5096963;28;20543;-78
2022/04/16 11:46:16;;;;;;;3.87;1.80;;;;;;;;;;5096150;28;20491;-77
2022/04/16 11:48:46;;;;;;;2.80;2.10;;;;;;;;;;5096453;28;20444;-75
2022/04/16 11:51:14;;;;;;;2.90;2.10;;;;;;;;;;5096226;28;20471;-78
2022/04/16 11:53:44;;;;;;;3.53;2.17;;;;;;;;;;5096376;28;20440;-77
2022/04/16 11:56:11;;;;;;;1.70;1.60;;;;;;;;;;5096232;28;20539;-78
2022/04/16 11:58:39;;;;;;;5.50;1.90;;;;;;;;;;5096484;28;20452;-78
2022/04/16 12:01:06;;;;;;;1.80;1.70;;;;;;;;;;5096051;28;20512;-78
2022/04/16 12:03:41;;;;;;;2.70;1.60;;;;;;;;;;5096031;28;20947;-79
2022/04/16 12:06:11;;;;;;;2.43;2.17;;;;;;;;;;5096048;28;20467;-78
2022/04/16 12:08:39;;;;;;;2.13;2.03;;;;;;;;;;5096062;28;20443;-79
2022/04/16 12:11:07;;;;;;;5.60;5.10;;;;;;;;;;5095789;28;20470;-79
2022/04/16 12:13:37;;;;;;;2.20;1.60;;;;;;;;;;5095755;28;20497;-78
2022/04/16 12:16:05;;;;;;;1.83;1.73;;;;;;;;;;5095790;28;20447;-78
2022/04/16 12:18:36;;;;;;;1.57;1.40;;;;;;;;;;5095567;28;20475;-78
2022/04/16 12:21:08;;;;;;;1.60;1.50;;;;;;;;;;5095946;28;20424;-78
2022/04/16 12:23:37;;;;;;;3.20;1.67;;;;;;;;;;5095565;28;20429;-78
2022/04/16 12:26:06;;;;;;;1.70;1.60;;;;;;;;;;5095615;28;20479;-78
2022/04/16 12:28:33;;;;;;;2.60;1.80;;;;;;;;;;5096028;28;20949;-78
2022/04/16 12:31:01;;;;;;;1.67;1.57;;;;;;;;;;5095069;28;20431;-78
2022/04/16 12:33:28;;;;;;;1.80;1.70;;;;;;;;;;5095970;28;20444;-78
2022/04/16 12:35:57;;;;;;;2.40;1.70;;;;;;;;;;5095197;28;20535;-78
2022/04/16 12:38:26;;;;;;;1.57;1.47;;;;;;;;;;5095290;28;20510;-78
2022/04/16 12:40:53;;;;;;;2.17;1.63;;;;;;;;;;5094998;28;20440;-78
2022/04/16 12:43:21;;;;;;;1.90;1.80;;;;;;;;;;5095317;28;20443;-80
2022/04/16 12:45:48;;;;;;;3.57;1.80;;;;;;;;;;5094617;28;20582;-77
2022/04/16 12:48:15;;;;;;;1.73;1.63;;;;;;;;;;5094996;28;20438;-78
2022/04/16 12:50:42;;;;;;;2.20;1.80;;;;;;;;;;5095260;28;20850;-77
2022/04/16 12:53:09;;;;;;;5.53;1.83;;;;;;;;;;5094911;28;20533;-78
2022/04/16 12:55:38;;;;;;;3.90;2.67;;;;;;;;;;5095047;28;20448;-78
2022/04/16 12:58:06;;;;;;;2.70;1.90;;;;;;;;;;5094937;28;20798;-78
2022/04/16 13:00:34;;;;;;;1.60;1.50;;;;;;;;;;5094909;28;20440;-77
2022/04/16 13:03:01;;;;;;;2.47;1.50;;;;;;;;;;5095172;28;20446;-77
2022/04/16 13:05:30;;;;;;;2.17;1.97;;;;;;;;;;5094457;28;20476;-78
2022/04/16 13:07:59;;;;;;;2.10;1.97;;;;;;;;;;5094903;28;20456;-78
2022/04/16 13:10:26;;;;;;;2.23;1.73;;;;;;;;;;5094752;28;20450;-77
2022/04/16 13:12:54;;;;;;;2.90;1.77;;;;;;;;;;5095025;28;20463;-74
2022/04/16 13:15:22;;;;;;;1.70;1.60;;;;;;;;;;5094396;28;20528;-77
2022/04/16 13:17:57;;;;;;;1.90;1.80;;;;;;;;;;5095046;28;20455;-78
2022/04/16 13:20:24;;;;;;;1.90;1.70;;;;;;;;;;5095013;28;20427;-78
2022/04/16 13:22:51;;;;;;;3.17;2.10;;;;;;;;;;5093925;28;20449;-77
2022/04/16 13:25:18;;;;;;;2.00;1.90;;;;;;;;;;5094488;28;20449;-78
2022/04/16 13:27:46;;;;;;;1.90;1.80;;;;;;;;;;5095114;28;20564;-78
2022/04/16 13:30:18;;;;;;;2.00;1.83;;;;;;;;;;5094556;28;20517;-78
2022/04/16 13:32:50;;;;;;;1.83;1.73;;;;;;;;;;5094728;28;20948;-78
2022/04/16 13:35:18;;;;;;;2.90;2.00;;;;;;;;;;5095023;28;20504;-77
2022/04/16 13:37:46;;;;;;;2.07;1.40;;;;;;;;;;5094403;28;20843;-77
2022/04/16 13:42:58;;;;;;;1.50;1.40;;;;;;;;;;5094174;28;20447;-77
2022/04/16 13:45:25;;;;;;;2.30;1.93;;;;;;;;;;5094594;28;20531;-78
2022/04/16 13:47:52;;;;;;;1.50;1.40;;;;;;;;;;5094197;28;20477;-77
2022/04/16 13:50:21;;;;;;;1.90;1.70;;;;;;;;;;5094269;28;20437;-78
2022/04/16 13:52:48;;;;;;;5.10;1.63;;;;;;;;;;5094025;28;20449;-77
2022/04/16 13:55:15;;;;;;;1.67;1.57;;;;;;;;;;5094042;28;20441;-77
2022/04/16 13:57:43;;;;;;;1.60;1.50;;;;;;;;;;5093861;28;20444;-77
2022/04/16 14:00:11;;;;;;;1.50;1.40;;;;;;;;;;5094662;28;20450;-77
2022/04/16 14:02:38;;;;;;;2.57;1.93;;;;;;;;;;5093635;28;20871;-77
2022/04/16 14:07:51;;;;;;;1.53;1.43;;;;;;;;;;5093417;28;20393;-77
2022/04/16 14:10:19;;;;;;;4.60;1.70;;;;;;;;;;5093475;28;20962;-77
2022/04/16 14:12:52;;;;;;;3.27;1.53;;;;;;;;;;5093409;28;20477;-77
2022/04/16 14:15:20;;;;;;;1.70;1.60;;;;;;;;;;5093652;28;20511;-77
2022/04/16 14:17:49;;;;;;;1.60;1.50;;;;;;;;;;5093891;28;20501;-77
2022/04/16 14:20:17;;;;;;;2.00;1.80;;;;;;;;;;5093363;28;20443;-78
2022/04/16 14:22:44;;;;;;;2.60;1.50;;;;;;;;;;5094381;28;20937;-78
2022/04/16 14:25:14;;;;;;;1.70;1.60;;;;;;;;;;5093436;28;20454;-78
2022/04/16 14:27:41;;;;;;;3.17;1.93;;;;;;;;;;5093875;28;20483;-78
2022/04/16 14:30:09;;;;;;;1.77;1.57;;;;;;;;;;5093874;28;20440;-78
2022/04/16 14:32:37;;;;;;;1.70;1.60;;;;;;;;;;5093293;28;20522;-77
2022/04/16 14:35:05;;;;;;;2.43;1.97;;;;;;;;;;5093180;28;20446;-77
2022/04/16 14:37:32;;;;;;;2.60;1.97;;;;;;;;;;5092987;28;20449;-77
2022/04/16 14:39:59;;;;;;;2.10;1.83;;;;;;;;;;5093382;28;20520;-77
2022/04/16 14:42:28;;;;;;;2.37;1.57;;;;;;;;;;5093446;28;20435;-77
2022/04/16 14:44:56;;;;;;;2.30;1.40;;;;;;;;;;5093900;28;20499;-77
2022/04/16 14:47:23;;;;;;;3.90;1.93;;;;;;;;;;5093627;28;20495;-77
2022/04/16 14:49:50;;;;;;;3.10;1.63;;;;;;;;;;5094157;28;20444;-77
2022/04/16 14:52:18;;;;;;;1.50;1.40;;;;;;;;;;5092750;28;20440;-77
2022/04/16 14:54:45;;;;;;;1.70;1.60;;;;;;;;;;5097118;28;20440;-77
2022/04/16 14:57:12;;;;;;;1.53;1.40;;;;;;;;;;5097144;28;20455;-77
2022/04/16 14:59:42;;;;;;;4.10;2.50;;;;;;;;;;5097456;28;20444;-77
2022/04/16 15:02:09;;;;;;;1.87;1.60;;;;;;;;;;5097183;28;20805;-77
2022/04/16 15:04:36;;;;;;;1.60;1.40;;;;;;;;;;5096871;28;20444;-77